Bormujos, Spain
Current Conditions -  °F | °C
As of 5:00 PM on Sunday 23 Nov 2014 (Local Time) from LEZL Reporting Station
Few Clouds Few Clouds  
Wind Chill: 68°   Ceiling: Unl
Heat Index: 68°   Visibility: 6mi
Dew Point: 59°   Wind: 1mph
Humidity: 73%   Direction: 130°SE
Pressure: 29.8"   Gusts: NA
Location:  37.37°N, 6.07°W
Report Text: LEZL 231600Z 13001KT 9000 FEW045 20/15 Q1009 TEMPO 4000 SHRA FEW025TCU
Loading
Personal Weather Stations






























Interactive Weather Map New forecast layout! Learn more

10-Day Weather Forecast

Advertisements
Track Severe Weather on mobile